sensor_id;sensor_type;location;lat;lon;timestamp;temperature;humidity
43099;DHT22;28715;51.988;6.020;2022-07-21T00:00:47;22.90;96.50
43099;DHT22;28715;51.988;6.020;2022-07-21T00:03:12;22.90;96.60
43099;DHT22;28715;51.988;6.020;2022-07-21T00:05:38;22.80;96.60
43099;DHT22;28715;51.988;6.020;2022-07-21T00:08:04;22.80;96.70
43099;DHT22;28715;51.988;6.020;2022-07-21T00:10:29;22.80;96.80
43099;DHT22;28715;51.988;6.020;2022-07-21T00:12:55;22.70;96.80
43099;DHT22;28715;51.988;6.020;2022-07-21T00:15:23;22.70;96.80
43099;DHT22;28715;51.988;6.020;2022-07-21T00:17:49;22.70;96.80
43099;DHT22;28715;51.988;6.020;2022-07-21T00:20:15;22.60;97.10
43099;DHT22;28715;51.988;6.020;2022-07-21T00:22:41;22.40;97.20
43099;DHT22;28715;51.988;6.020;2022-07-21T00:25:08;22.40;97.50
43099;DHT22;28715;51.988;6.020;2022-07-21T00:27:35;22.40;97.80
43099;DHT22;28715;51.988;6.020;2022-07-21T00:30:01;22.50;98.00
43099;DHT22;28715;51.988;6.020;2022-07-21T00:32:26;22.50;97.90
43099;DHT22;28715;51.988;6.020;2022-07-21T00:34:52;22.50;98.00
43099;DHT22;28715;51.988;6.020;2022-07-21T00:37:17;22.50;98.00
43099;DHT22;28715;51.988;6.020;2022-07-21T00:39:43;22.50;98.10
43099;DHT22;28715;51.988;6.020;2022-07-21T00:42:20;22.50;98.20
43099;DHT22;28715;51.988;6.020;2022-07-21T00:44:45;22.50;98.30
43099;DHT22;28715;51.988;6.020;2022-07-21T00:47:11;22.60;98.20
43099;DHT22;28715;51.988;6.020;2022-07-21T00:49:37;22.60;98.00
43099;DHT22;28715;51.988;6.020;2022-07-21T00:52:02;22.60;97.80
43099;DHT22;28715;51.988;6.020;2022-07-21T00:54:28;22.60;97.70
43099;DHT22;28715;51.988;6.020;2022-07-21T00:56:54;22.60;97.50
43099;DHT22;28715;51.988;6.020;2022-07-21T00:59:19;22.60;97.80
43099;DHT22;28715;51.988;6.020;2022-07-21T01:01:45;22.60;98.00
43099;DHT22;28715;51.988;6.020;2022-07-21T01:04:11;22.60;98.10
43099;DHT22;28715;51.988;6.020;2022-07-21T01:06:36;22.60;98.20
43099;DHT22;28715;51.988;6.020;2022-07-21T01:09:02;22.60;98.20
43099;DHT22;28715;51.988;6.020;2022-07-21T01:11:28;22.50;98.40
43099;DHT22;28715;51.988;6.020;2022-07-21T01:13:54;22.50;98.40
43099;DHT22;28715;51.988;6.020;2022-07-21T01:16:19;22.50;98.50
43099;DHT22;28715;51.988;6.020;2022-07-21T01:18:45;22.50;98.50
43099;DHT22;28715;51.988;6.020;2022-07-21T01:21:33;22.50;98.40
43099;DHT22;28715;51.988;6.020;2022-07-21T01:24:00;22.50;98.20
43099;DHT22;28715;51.988;6.020;2022-07-21T01:26:26;22.40;97.90
43099;DHT22;28715;51.988;6.020;2022-07-21T01:28:52;22.40;98.00
43099;DHT22;28715;51.988;6.020;2022-07-21T01:31:19;22.40;98.10
43099;DHT22;28715;51.988;6.020;2022-07-21T01:33:44;22.40;98.20
43099;DHT22;28715;51.988;6.020;2022-07-21T01:36:10;22.30;98.00
43099;DHT22;28715;51.988;6.020;2022-07-21T01:38:35;22.30;97.90
43099;DHT22;28715;51.988;6.020;2022-07-21T01:41:19;22.30;97.90
43099;DHT22;28715;51.988;6.020;2022-07-21T01:43:54;22.20;97.90
43099;DHT22;28715;51.988;6.020;2022-07-21T01:46:20;22.20;97.80
43099;DHT22;28715;51.988;6.020;2022-07-21T01:48:45;22.20;97.50
43099;DHT22;28715;51.988;6.020;2022-07-21T01:51:11;22.10;97.80
43099;DHT22;28715;51.988;6.020;2022-07-21T01:53:38;22.10;97.90
43099;DHT22;28715;51.988;6.020;2022-07-21T01:56:05;22.10;98.10
43099;DHT22;28715;51.988;6.020;2022-07-21T01:58:31;22.10;97.90
43099;DHT22;28715;51.988;6.020;2022-07-21T02:00:57;22.10;98.10
43099;DHT22;28715;51.988;6.020;2022-07-21T02:03:22;22.10;98.20
43099;DHT22;28715;51.988;6.020;2022-07-21T02:05:48;22.00;98.00
43099;DHT22;28715;51.988;6.020;2022-07-21T02:08:14;22.00;98.10
43099;DHT22;28715;51.988;6.020;2022-07-21T02:10:39;22.00;98.00
43099;DHT22;28715;51.988;6.020;2022-07-21T02:13:05;22.00;98.00
43099;DHT22;28715;51.988;6.020;2022-07-21T02:15:31;22.00;98.30
43099;DHT22;28715;51.988;6.020;2022-07-21T02:17:57;22.00;98.30
43099;DHT22;28715;51.988;6.020;2022-07-21T02:20:24;21.90;98.30
43099;DHT22;28715;51.988;6.020;2022-07-21T02:22:50;21.90;98.40
43099;DHT22;28715;51.988;6.020;2022-07-21T02:25:16;21.90;98.40
43099;DHT22;28715;51.988;6.020;2022-07-21T02:27:42;21.90;98.60
43099;DHT22;28715;51.988;6.020;2022-07-21T02:30:09;21.90;98.80
43099;DHT22;28715;51.988;6.020;2022-07-21T02:32:35;21.90;98.80
43099;DHT22;28715;51.988;6.020;2022-07-21T02:35:00;21.90;98.80
43099;DHT22;28715;51.988;6.020;2022-07-21T02:37:27;21.90;98.90
43099;DHT22;28715;51.988;6.020;2022-07-21T02:39:53;21.90;98.90
43099;DHT22;28715;51.988;6.020;2022-07-21T02:42:19;21.90;99.00
43099;DHT22;28715;51.988;6.020;2022-07-21T02:44:44;21.90;98.90
43099;DHT22;28715;51.988;6.020;2022-07-21T02:47:10;21.90;99.00
43099;DHT22;28715;51.988;6.020;2022-07-21T02:49:35;21.90;98.90
43099;DHT22;28715;51.988;6.020;2022-07-21T02:52:01;21.90;98.70
43099;DHT22;28715;51.988;6.020;2022-07-21T02:54:26;21.90;98.70
43099;DHT22;28715;51.988;6.020;2022-07-21T02:56:52;21.90;98.80
43099;DHT22;28715;51.988;6.020;2022-07-21T02:59:18;21.90;98.80
43099;DHT22;28715;51.988;6.020;2022-07-21T03:01:43;21.90;98.80
43099;DHT22;28715;51.988;6.020;2022-07-21T03:04:09;21.90;99.10
43099;DHT22;28715;51.988;6.020;2022-07-21T03:06:34;22.00;99.20
43099;DHT22;28715;51.988;6.020;2022-07-21T03:09:00;21.90;99.60
43099;DHT22;28715;51.988;6.020;2022-07-21T03:11:25;22.00;99.40
43099;DHT22;28715;51.988;6.020;2022-07-21T03:13:51;21.90;99.30
43099;DHT22;28715;51.988;6.020;2022-07-21T03:16:16;21.90;99.40
43099;DHT22;28715;51.988;6.020;2022-07-21T03:18:42;21.90;99.30
43099;DHT22;28715;51.988;6.020;2022-07-21T03:21:08;21.90;99.20
43099;DHT22;28715;51.988;6.020;2022-07-21T03:23:33;21.80;99.10
43099;DHT22;28715;51.988;6.020;2022-07-21T03:25:59;21.70;98.90
43099;DHT22;28715;51.988;6.020;2022-07-21T03:28:25;21.70;98.90
43099;DHT22;28715;51.988;6.020;2022-07-21T03:30:50;21.60;98.90
43099;DHT22;28715;51.988;6.020;2022-07-21T03:33:16;21.60;99.00
43099;DHT22;28715;51.988;6.020;2022-07-21T03:35:42;21.60;99.20
43099;DHT22;28715;51.988;6.020;2022-07-21T03:38:08;21.60;99.30
43099;DHT22;28715;51.988;6.020;2022-07-21T03:40:35;21.50;99.60
43099;DHT22;28715;51.988;6.020;2022-07-21T03:43:03;21.50;99.30
43099;DHT22;28715;51.988;6.020;2022-07-21T03:45:31;21.50;99.30
43099;DHT22;28715;51.988;6.020;2022-07-21T03:47:58;21.40;99.20
43099;DHT22;28715;51.988;6.020;2022-07-21T03:50:24;21.40;99.30
43099;DHT22;28715;51.988;6.020;2022-07-21T03:52:49;21.30;99.40
43099;DHT22;28715;51.988;6.020;2022-07-21T03:55:15;21.20;99.60
43099;DHT22;28715;51.988;6.020;2022-07-21T03:57:45;21.20;99.70
43099;DHT22;28715;51.988;6.020;2022-07-21T04:00:18;21.10;99.70
43099;DHT22;28715;51.988;6.020;2022-07-21T04:02:44;21.10;99.90
43099;DHT22;28715;51.988;6.020;2022-07-21T04:05:11;21.00;99.90
43099;DHT22;28715;51.988;6.020;2022-07-21T04:07:40;21.10;99.90
43099;DHT22;28715;51.988;6.020;2022-07-21T04:10:07;21.00;99.90
43099;DHT22;28715;51.988;6.020;2022-07-21T04:12:33;21.00;99.90
43099;DHT22;28715;51.988;6.020;2022-07-21T04:14:59;21.00;99.90
43099;DHT22;28715;51.988;6.020;2022-07-21T04:17:24;21.00;99.90
43099;DHT22;28715;51.988;6.020;2022-07-21T04:19:50;21.00;99.90
43099;DHT22;28715;51.988;6.020;2022-07-21T04:22:16;21.00;99.90
43099;DHT22;28715;51.988;6.020;2022-07-21T04:24:41;21.00;99.90
43099;DHT22;28715;51.988;6.020;2022-07-21T04:27:07;21.00;99.90
43099;DHT22;28715;51.988;6.020;2022-07-21T04:29:33;21.00;99.90
43099;DHT22;28715;51.988;6.020;2022-07-21T04:31:58;20.90;99.90
43099;DHT22;28715;51.988;6.020;2022-07-21T04:34:24;20.90;99.90
43099;DHT22;28715;51.988;6.020;2022-07-21T04:36:50;20.90;99.90
43099;DHT22;28715;51.988;6.020;2022-07-21T04:39:15;20.80;99.90
43099;DHT22;28715;51.988;6.020;2022-07-21T04:41:41;20.90;99.90
43099;DHT22;28715;51.988;6.020;2022-07-21T04:44:06;20.80;99.90
43099;DHT22;28715;51.988;6.020;2022-07-21T04:46:32;20.80;99.90
43099;DHT22;28715;51.988;6.020;2022-07-21T04:48:58;20.80;99.90
43099;DHT22;28715;51.988;6.020;2022-07-21T04:51:23;20.80;99.90
43099;DHT22;28715;51.988;6.020;2022-07-21T04:53:49;20.90;99.90
43099;DHT22;28715;51.988;6.020;2022-07-21T04:56:14;20.80;99.90
43099;DHT22;28715;51.988;6.020;2022-07-21T04:58:40;20.80;99.90
43099;DHT22;28715;51.988;6.020;2022-07-21T05:01:05;20.80;99.90
43099;DHT22;28715;51.988;6.020;2022-07-21T05:03:31;20.80;99.90
43099;DHT22;28715;51.988;6.020;2022-07-21T05:05:56;20.80;99.90
43099;DHT22;28715;51.988;6.020;2022-07-21T05:08:22;20.80;99.90
43099;DHT22;28715;51.988;6.020;2022-07-21T05:10:48;20.80;99.90
43099;DHT22;28715;51.988;6.020;2022-07-21T05:13:13;20.90;99.90
43099;DHT22;28715;51.988;6.020;2022-07-21T05:15:39;20.90;99.90
43099;DHT22;28715;51.988;6.020;2022-07-21T05:18:07;20.90;99.90
43099;DHT22;28715;51.988;6.020;2022-07-21T05:20:33;20.90;99.90
43099;DHT22;28715;51.988;6.020;2022-07-21T05:22:58;20.90;99.90
43099;DHT22;28715;51.988;6.020;2022-07-21T05:25:24;20.90;99.90
43099;DHT22;28715;51.988;6.020;2022-07-21T05:27:49;20.90;99.90
43099;DHT22;28715;51.988;6.020;2022-07-21T05:30:15;20.90;99.90
43099;DHT22;28715;51.988;6.020;2022-07-21T05:32:41;20.90;99.90
43099;DHT22;28715;51.988;6.020;2022-07-21T05:35:06;20.90;99.90
43099;DHT22;28715;51.988;6.020;2022-07-21T05:37:39;20.90;99.90
43099;DHT22;28715;51.988;6.020;2022-07-21T05:40:06;20.90;99.90
43099;DHT22;28715;51.988;6.020;2022-07-21T05:42:32;21.00;99.90
43099;DHT22;28715;51.988;6.020;2022-07-21T05:44:57;21.00;99.90
43099;DHT22;28715;51.988;6.020;2022-07-21T05:47:23;21.00;99.90
43099;DHT22;28715;51.988;6.020;2022-07-21T05:49:50;21.00;99.90
43099;DHT22;28715;51.988;6.020;2022-07-21T05:52:16;21.00;99.90
43099;DHT22;28715;51.988;6.020;2022-07-21T05:54:41;21.00;99.90
43099;DHT22;28715;51.988;6.020;2022-07-21T05:57:07;21.00;99.90
43099;DHT22;28715;51.988;6.020;2022-07-21T05:59:32;21.00;99.90
43099;DHT22;28715;51.988;6.020;2022-07-21T06:01:59;21.00;99.90
43099;DHT22;28715;51.988;6.020;2022-07-21T06:04:25;21.00;99.90
43099;DHT22;28715;51.988;6.020;2022-07-21T06:06:51;20.90;99.90
43099;DHT22;28715;51.988;6.020;2022-07-21T06:09:18;20.90;99.90
43099;DHT22;28715;51.988;6.020;2022-07-21T06:11:44;20.80;99.90
43099;DHT22;28715;51.988;6.020;2022-07-21T06:14:10;20.90;99.90
43099;DHT22;28715;51.988;6.020;2022-07-21T06:16:35;20.80;99.90
43099;DHT22;28715;51.988;6.020;2022-07-21T06:19:01;20.80;99.90
43099;DHT22;28715;51.988;6.020;2022-07-21T06:21:29;20.80;99.90
43099;DHT22;28715;51.988;6.020;2022-07-21T06:23:55;20.80;99.90
43099;DHT22;28715;51.988;6.020;2022-07-21T06:26:20;20.90;99.90
43099;DHT22;28715;51.988;6.020;2022-07-21T06:28:46;20.80;99.90
43099;DHT22;28715;51.988;6.020;2022-07-21T06:31:11;20.80;99.90
43099;DHT22;28715;51.988;6.020;2022-07-21T06:33:37;20.90;99.90
43099;DHT22;28715;51.988;6.020;2022-07-21T06:36:03;20.90;99.90
43099;DHT22;28715;51.988;6.020;2022-07-21T06:38:28;21.00;99.90
43099;DHT22;28715;51.988;6.020;2022-07-21T06:40:54;20.90;99.90
43099;DHT22;28715;51.988;6.020;2022-07-21T06:43:19;20.90;99.90
43099;DHT22;28715;51.988;6.020;2022-07-21T06:45:45;20.90;99.90
43099;DHT22;28715;51.988;6.020;2022-07-21T06:48:10;21.00;99.90
43099;DHT22;28715;51.988;6.020;2022-07-21T06:50:37;21.00;99.90
43099;DHT22;28715;51.988;6.020;2022-07-21T06:53:03;21.10;99.90
43099;DHT22;28715;51.988;6.020;2022-07-21T06:55:29;21.10;99.90
43099;DHT22;28715;51.988;6.020;2022-07-21T06:57:55;21.20;99.90
43099;DHT22;28715;51.988;6.020;2022-07-21T07:00:21;21.30;99.90
43099;DHT22;28715;51.988;6.020;2022-07-21T07:02:46;21.30;99.70
43099;DHT22;28715;51.988;6.020;2022-07-21T07:05:12;21.30;99.60
43099;DHT22;28715;51.988;6.020;2022-07-21T07:07:38;21.30;99.60
43099;DHT22;28715;51.988;6.020;2022-07-21T07:10:04;21.40;99.60
43099;DHT22;28715;51.988;6.020;2022-07-21T07:12:30;21.40;99.30
43099;DHT22;28715;51.988;6.020;2022-07-21T07:14:55;21.50;99.60
43099;DHT22;28715;51.988;6.020;2022-07-21T07:17:21;21.50;99.40
43099;DHT22;28715;51.988;6.020;2022-07-21T07:19:47;21.50;99.30
43099;DHT22;28715;51.988;6.020;2022-07-21T07:22:13;21.60;99.30
43099;DHT22;28715;51.988;6.020;2022-07-21T07:24:39;21.60;99.20
43099;DHT22;28715;51.988;6.020;2022-07-21T07:27:04;21.60;98.70
43099;DHT22;28715;51.988;6.020;2022-07-21T07:29:30;21.60;98.70
43099;DHT22;28715;51.988;6.020;2022-07-21T07:31:57;21.60;98.70
43099;DHT22;28715;51.988;6.020;2022-07-21T07:34:23;21.60;98.70
43099;DHT22;28715;51.988;6.020;2022-07-21T07:36:48;21.60;98.70
43099;DHT22;28715;51.988;6.020;2022-07-21T07:39:14;21.60;98.60
43099;DHT22;28715;51.988;6.020;2022-07-21T07:41:41;21.60;98.70
43099;DHT22;28715;51.988;6.020;2022-07-21T07:44:07;21.50;98.50
43099;DHT22;28715;51.988;6.020;2022-07-21T07:46:32;21.50;98.40
43099;DHT22;28715;51.988;6.020;2022-07-21T07:48:58;21.50;98.70
43099;DHT22;28715;51.988;6.020;2022-07-21T07:51:24;21.50;98.70
43099;DHT22;28715;51.988;6.020;2022-07-21T07:53:50;21.50;98.60
43099;DHT22;28715;51.988;6.020;2022-07-21T07:56:16;21.50;98.50
43099;DHT22;28715;51.988;6.020;2022-07-21T07:58:42;21.50;98.50
43099;DHT22;28715;51.988;6.020;2022-07-21T08:01:07;21.40;98.60
43099;DHT22;28715;51.988;6.020;2022-07-21T08:03:34;21.50;98.50
43099;DHT22;28715;51.988;6.020;2022-07-21T08:06:00;21.50;98.50
43099;DHT22;28715;51.988;6.020;2022-07-21T08:08:29;21.50;98.30
43099;DHT22;28715;51.988;6.020;2022-07-21T08:10:55;21.50;98.20
43099;DHT22;28715;51.988;6.020;2022-07-21T08:13:20;21.60;98.10
43099;DHT22;28715;51.988;6.020;2022-07-21T08:15:47;21.60;97.90
43099;DHT22;28715;51.988;6.020;2022-07-21T08:18:13;21.60;98.40
43099;DHT22;28715;51.988;6.020;2022-07-21T08:20:39;21.60;98.30
43099;DHT22;28715;51.988;6.020;2022-07-21T08:23:05;21.70;98.50
43099;DHT22;28715;51.988;6.020;2022-07-21T08:25:32;21.70;98.40
43099;DHT22;28715;51.988;6.020;2022-07-21T08:27:57;21.70;98.40
43099;DHT22;28715;51.988;6.020;2022-07-21T08:30:23;21.60;98.10
43099;DHT22;28715;51.988;6.020;2022-07-21T08:32:49;21.70;98.20
43099;DHT22;28715;51.988;6.020;2022-07-21T08:35:15;21.70;98.30
43099;DHT22;28715;51.988;6.020;2022-07-21T08:37:40;21.70;98.50
43099;DHT22;28715;51.988;6.020;2022-07-21T08:40:08;21.70;98.50
43099;DHT22;28715;51.988;6.020;2022-07-21T08:42:35;21.80;98.40
43099;DHT22;28715;51.988;6.020;2022-07-21T08:45:01;21.80;98.20
43099;DHT22;28715;51.988;6.020;2022-07-21T08:47:27;21.90;98.20
43099;DHT22;28715;51.988;6.020;2022-07-21T08:49:57;21.90;98.10
43099;DHT22;28715;51.988;6.020;2022-07-21T08:52:23;21.90;98.10
43099;DHT22;28715;51.988;6.020;2022-07-21T08:54:48;22.00;98.20
43099;DHT22;28715;51.988;6.020;2022-07-21T08:57:14;22.00;98.00
43099;DHT22;28715;51.988;6.020;2022-07-21T08:59:39;22.10;98.20
43099;DHT22;28715;51.988;6.020;2022-07-21T09:02:05;22.10;98.00
43099;DHT22;28715;51.988;6.020;2022-07-21T09:04:33;22.10;97.90
43099;DHT22;28715;51.988;6.020;2022-07-21T09:07:05;22.10;98.00
43099;DHT22;28715;51.988;6.020;2022-07-21T09:09:33;22.10;98.30
43099;DHT22;28715;51.988;6.020;2022-07-21T09:12:00;22.00;98.00
43099;DHT22;28715;51.988;6.020;2022-07-21T09:14:29;22.00;98.10
43099;DHT22;28715;51.988;6.020;2022-07-21T09:16:57;22.00;98.10
43099;DHT22;28715;51.988;6.020;2022-07-21T09:19:32;22.00;98.20
43099;DHT22;28715;51.988;6.020;2022-07-21T09:22:00;21.90;98.20
43099;DHT22;28715;51.988;6.020;2022-07-21T09:24:30;21.90;98.40
43099;DHT22;28715;51.988;6.020;2022-07-21T09:27:06;21.80;98.50
43099;DHT22;28715;51.988;6.020;2022-07-21T09:29:49;21.90;98.60
43099;DHT22;28715;51.988;6.020;2022-07-21T09:32:33;21.80;98.60
43099;DHT22;28715;51.988;6.020;2022-07-21T09:35:10;21.90;98.70
43099;DHT22;28715;51.988;6.020;2022-07-21T09:37:38;21.80;98.70
43099;DHT22;28715;51.988;6.020;2022-07-21T09:40:06;21.80;98.80
43099;DHT22;28715;51.988;6.020;2022-07-21T09:42:58;21.70;98.90
43099;DHT22;28715;51.988;6.020;2022-07-21T09:45:22;21.50;99.00
43099;DHT22;28715;51.988;6.020;2022-07-21T09:47:48;21.50;99.20
43099;DHT22;28715;51.988;6.020;2022-07-21T09:50:16;21.60;99.30
43099;DHT22;28715;51.988;6.020;2022-07-21T09:52:44;21.50;99.10
43099;DHT22;28715;51.988;6.020;2022-07-21T09:55:12;21.50;99.20
43099;DHT22;28715;51.988;6.020;2022-07-21T09:57:39;21.50;99.40
43099;DHT22;28715;51.988;6.020;2022-07-21T10:00:09;21.40;99.80
43099;DHT22;28715;51.988;6.020;2022-07-21T10:02:35;21.30;99.90
43099;DHT22;28715;51.988;6.020;2022-07-21T10:05:10;21.30;99.90
43099;DHT22;28715;51.988;6.020;2022-07-21T10:07:39;21.20;99.90
43099;DHT22;28715;51.988;6.020;2022-07-21T10:10:05;21.10;99.90
43099;DHT22;28715;51.988;6.020;2022-07-21T10:12:31;21.10;99.90
43099;DHT22;28715;51.988;6.020;2022-07-21T10:14:57;21.00;99.90
43099;DHT22;28715;51.988;6.020;2022-07-21T10:17:24;20.90;99.90
43099;DHT22;28715;51.988;6.020;2022-07-21T10:20:11;20.90;99.90
43099;DHT22;28715;51.988;6.020;2022-07-21T10:23:06;20.90;99.90
43099;DHT22;28715;51.988;6.020;2022-07-21T10:25:35;20.90;99.90
43099;DHT22;28715;51.988;6.020;2022-07-21T10:28:14;20.90;99.90
43099;DHT22;28715;51.988;6.020;2022-07-21T10:30:45;20.90;99.90
43099;DHT22;28715;51.988;6.020;2022-07-21T10:33:13;20.90;99.90
43099;DHT22;28715;51.988;6.020;2022-07-21T10:35:50;21.00;99.90
43099;DHT22;28715;51.988;6.020;2022-07-21T10:38:30;21.00;99.90
43099;DHT22;28715;51.988;6.020;2022-07-21T10:40:57;21.00;99.90
43099;DHT22;28715;51.988;6.020;2022-07-21T10:45:51;21.00;99.90
43099;DHT22;28715;51.988;6.020;2022-07-21T10:51:12;21.00;99.90
43099;DHT22;28715;51.988;6.020;2022-07-21T10:53:39;21.00;99.90
43099;DHT22;28715;51.988;6.020;2022-07-21T10:56:07;21.10;99.90
43099;DHT22;28715;51.988;6.020;2022-07-21T10:58:34;21.10;99.90
43099;DHT22;28715;51.988;6.020;2022-07-21T11:01:03;21.20;99.90
43099;DHT22;28715;51.988;6.020;2022-07-21T11:03:33;21.20;99.90
43099;DHT22;28715;51.988;6.020;2022-07-21T11:06:21;21.20;99.90
43099;DHT22;28715;51.988;6.020;2022-07-21T11:09:12;21.20;99.90
43099;DHT22;28715;51.988;6.020;2022-07-21T11:11:57;21.20;99.90
43099;DHT22;28715;51.988;6.020;2022-07-21T11:14:41;21.10;99.90
43099;DHT22;28715;51.988;6.020;2022-07-21T11:17:09;21.00;99.90
43099;DHT22;28715;51.988;6.020;2022-07-21T11:22:23;21.00;99.90
43099;DHT22;28715;51.988;6.020;2022-07-21T11:24:55;21.10;99.90
43099;DHT22;28715;51.988;6.020;2022-07-21T11:27:24;21.10;99.90
43099;DHT22;28715;51.988;6.020;2022-07-21T11:29:55;21.10;99.90
43099;DHT22;28715;51.988;6.020;2022-07-21T11:32:21;21.10;99.90
43099;DHT22;28715;51.988;6.020;2022-07-21T11:34:51;21.10;99.90
43099;DHT22;28715;51.988;6.020;2022-07-21T11:39:57;21.20;99.90
43099;DHT22;28715;51.988;6.020;2022-07-21T11:42:24;21.20;99.90
43099;DHT22;28715;51.988;6.020;2022-07-21T11:44:50;21.20;99.90
43099;DHT22;28715;51.988;6.020;2022-07-21T11:47:16;21.20;99.90
43099;DHT22;28715;51.988;6.020;2022-07-21T11:49:43;21.30;99.90
43099;DHT22;28715;51.988;6.020;2022-07-21T11:52:14;21.30;99.90
43099;DHT22;28715;51.988;6.020;2022-07-21T11:54:47;21.30;99.90
43099;DHT22;28715;51.988;6.020;2022-07-21T11:57:14;21.40;99.90
43099;DHT22;28715;51.988;6.020;2022-07-21T11:59:41;21.40;99.90
43099;DHT22;28715;51.988;6.020;2022-07-21T12:02:15;21.40;99.90
43099;DHT22;28715;51.988;6.020;2022-07-21T12:04:48;21.30;99.90
43099;DHT22;28715;51.988;6.020;2022-07-21T12:07:34;21.40;99.90
43099;DHT22;28715;51.988;6.020;2022-07-21T12:10:23;21.40;99.90
43099;DHT22;28715;51.988;6.020;2022-07-21T12:12:48;21.40;99.90
43099;DHT22;28715;51.988;6.020;2022-07-21T12:15:26;21.50;99.90
43099;DHT22;28715;51.988;6.020;2022-07-21T12:18:02;21.50;99.90
43099;DHT22;28715;51.988;6.020;2022-07-21T12:22:58;21.40;99.90
43099;DHT22;28715;51.988;6.020;2022-07-21T12:25:31;21.40;99.90
43099;DHT22;28715;51.988;6.020;2022-07-21T12:27:57;21.40;99.90
43099;DHT22;28715;51.988;6.020;2022-07-21T12:30:45;21.40;99.90
43099;DHT22;28715;51.988;6.020;2022-07-21T12:33:19;21.40;99.90
43099;DHT22;28715;51.988;6.020;2022-07-21T12:36:00;21.40;99.90
43099;DHT22;28715;51.988;6.020;2022-07-21T12:38:43;21.40;99.90
43099;DHT22;28715;51.988;6.020;2022-07-21T12:41:12;21.40;99.90
43099;DHT22;28715;51.988;6.020;2022-07-21T12:43:38;21.40;99.90
43099;DHT22;28715;51.988;6.020;2022-07-21T12:46:15;21.40;99.90
43099;DHT22;28715;51.988;6.020;2022-07-21T12:48:42;21.30;99.90
43099;DHT22;28715;51.988;6.020;2022-07-21T12:53:54;21.40;99.90
43099;DHT22;28715;51.988;6.020;2022-07-21T12:56:30;21.40;99.90
43099;DHT22;28715;51.988;6.020;2022-07-21T12:58:58;21.40;99.90
43099;DHT22;28715;51.988;6.020;2022-07-21T13:01:26;21.50;99.90
43099;DHT22;28715;51.988;6.020;2022-07-21T13:03:53;21.40;99.90
43099;DHT22;28715;51.988;6.020;2022-07-21T13:06:21;21.40;99.90
43099;DHT22;28715;51.988;6.020;2022-07-21T13:08:48;21.40;99.90
43099;DHT22;28715;51.988;6.020;2022-07-21T13:11:16;21.50;99.90
43099;DHT22;28715;51.988;6.020;2022-07-21T13:13:44;21.50;99.90
43099;DHT22;28715;51.988;6.020;2022-07-21T13:16:11;21.50;99.90
43099;DHT22;28715;51.988;6.020;2022-07-21T13:18:36;21.50;99.90
43099;DHT22;28715;51.988;6.020;2022-07-21T13:21:03;21.40;99.90
43099;DHT22;28715;51.988;6.020;2022-07-21T13:23:29;21.40;99.90
43099;DHT22;28715;51.988;6.020;2022-07-21T13:25:54;21.40;99.90
43099;DHT22;28715;51.988;6.020;2022-07-21T13:28:20;21.40;99.90
43099;DHT22;28715;51.988;6.020;2022-07-21T13:30:45;21.30;99.90
43099;DHT22;28715;51.988;6.020;2022-07-21T13:33:12;21.30;99.90
43099;DHT22;28715;51.988;6.020;2022-07-21T13:35:38;21.30;99.90
43099;DHT22;28715;51.988;6.020;2022-07-21T13:38:04;21.20;99.90
43099;DHT22;28715;51.988;6.020;2022-07-21T13:40:30;21.10;99.90
43099;DHT22;28715;51.988;6.020;2022-07-21T13:42:55;21.10;99.90
43099;DHT22;28715;51.988;6.020;2022-07-21T13:45:21;21.00;99.90
43099;DHT22;28715;51.988;6.020;2022-07-21T13:47:47;21.00;99.90
43099;DHT22;28715;51.988;6.020;2022-07-21T13:50:13;21.10;99.90
43099;DHT22;28715;51.988;6.020;2022-07-21T13:52:39;21.10;99.90
43099;DHT22;28715;51.988;6.020;2022-07-21T13:55:07;21.30;99.90
43099;DHT22;28715;51.988;6.020;2022-07-21T13:57:33;21.30;99.90
43099;DHT22;28715;51.988;6.020;2022-07-21T13:59:59;21.30;99.90
43099;DHT22;28715;51.988;6.020;2022-07-21T14:02:24;21.30;99.90
43099;DHT22;28715;51.988;6.020;2022-07-21T14:04:50;21.40;99.90
43099;DHT22;28715;51.988;6.020;2022-07-21T14:07:15;21.40;99.90
43099;DHT22;28715;51.988;6.020;2022-07-21T14:09:41;21.40;99.90
43099;DHT22;28715;51.988;6.020;2022-07-21T14:12:08;21.40;99.90
43099;DHT22;28715;51.988;6.020;2022-07-21T14:14:35;21.40;99.90
43099;DHT22;28715;51.988;6.020;2022-07-21T14:17:01;21.40;99.90
43099;DHT22;28715;51.988;6.020;2022-07-21T14:19:26;21.50;99.90
43099;DHT22;28715;51.988;6.020;2022-07-21T14:21:52;21.60;99.90
43099;DHT22;28715;51.988;6.020;2022-07-21T14:24:18;21.80;99.90
43099;DHT22;28715;51.988;6.020;2022-07-21T14:27:01;21.90;99.90
43099;DHT22;28715;51.988;6.020;2022-07-21T14:29:27;22.20;99.90
43099;DHT22;28715;51.988;6.020;2022-07-21T14:31:53;22.20;99.90
43099;DHT22;28715;51.988;6.020;2022-07-21T14:34:18;22.30;99.90
43099;DHT22;28715;51.988;6.020;2022-07-21T14:36:44;22.40;99.90
43099;DHT22;28715;51.988;6.020;2022-07-21T14:39:09;22.30;99.90
43099;DHT22;28715;51.988;6.020;2022-07-21T14:41:35;22.30;99.90
43099;DHT22;28715;51.988;6.020;2022-07-21T14:44:01;22.30;99.90
43099;DHT22;28715;51.988;6.020;2022-07-21T14:46:26;22.30;99.90
43099;DHT22;28715;51.988;6.020;2022-07-21T14:48:52;22.30;99.90
43099;DHT22;28715;51.988;6.020;2022-07-21T14:51:17;22.20;99.90
43099;DHT22;28715;51.988;6.020;2022-07-21T14:53:43;22.10;99.90
43099;DHT22;28715;51.988;6.020;2022-07-21T14:56:09;21.90;99.90
43099;DHT22;28715;51.988;6.020;2022-07-21T14:58:35;21.80;99.90
43099;DHT22;28715;51.988;6.020;2022-07-21T15:01:00;21.80;99.90
43099;DHT22;28715;51.988;6.020;2022-07-21T15:03:26;21.80;99.90
43099;DHT22;28715;51.988;6.020;2022-07-21T15:05:52;21.80;99.90
43099;DHT22;28715;51.988;6.020;2022-07-21T15:08:18;21.80;99.90
43099;DHT22;28715;51.988;6.020;2022-07-21T15:10:43;21.80;99.90
43099;DHT22;28715;51.988;6.020;2022-07-21T15:13:10;21.90;99.90
43099;DHT22;28715;51.988;6.020;2022-07-21T15:15:35;22.00;99.90
43099;DHT22;28715;51.988;6.020;2022-07-21T15:18:03;21.90;99.90
43099;DHT22;28715;51.988;6.020;2022-07-21T15:20:29;21.80;99.90
43099;DHT22;28715;51.988;6.020;2022-07-21T15:22:54;21.90;99.90
43099;DHT22;28715;51.988;6.020;2022-07-21T15:25:20;21.80;99.90
43099;DHT22;28715;51.988;6.020;2022-07-21T15:27:45;21.80;99.90
43099;DHT22;28715;51.988;6.020;2022-07-21T15:30:13;21.80;99.90
43099;DHT22;28715;51.988;6.020;2022-07-21T15:32:40;21.70;99.90
43099;DHT22;28715;51.988;6.020;2022-07-21T15:35:06;21.60;99.90
43099;DHT22;28715;51.988;6.020;2022-07-21T15:37:32;21.60;99.90
43099;DHT22;28715;51.988;6.020;2022-07-21T15:39:58;21.60;99.90
43099;DHT22;28715;51.988;6.020;2022-07-21T15:42:24;21.50;99.90
43099;DHT22;28715;51.988;6.020;2022-07-21T15:44:50;21.50;99.90
43099;DHT22;28715;51.988;6.020;2022-07-21T15:47:15;21.50;99.90